sensor_id;sensor_type;location;lat;lon;timestamp;P1;durP1;ratioP1;P2;durP2;ratioP2
50757;SDS011;36732;47.980;11.652;2023-04-24T00:00:09;0.63;;;0.40;;
50757;SDS011;36732;47.980;11.652;2023-04-24T00:02:36;0.57;;;0.50;;
50757;SDS011;36732;47.980;11.652;2023-04-24T00:05:04;0.50;;;0.30;;
50757;SDS011;36732;47.980;11.652;2023-04-24T00:07:32;0.43;;;0.40;;
50757;SDS011;36732;47.980;11.652;2023-04-24T00:09:58;0.93;;;0.30;;
50757;SDS011;36732;47.980;11.652;2023-04-24T00:12:24;0.22;;;0.20;;
50757;SDS011;36732;47.980;11.652;2023-04-24T00:14:50;0.20;;;0.20;;
50757;SDS011;36732;47.980;11.652;2023-04-24T00:17:16;0.30;;;0.30;;
50757;SDS011;36732;47.980;11.652;2023-04-24T00:19:45;0.30;;;0.30;;
50757;SDS011;36732;47.980;11.652;2023-04-24T00:22:11;0.52;;;0.35;;
50757;SDS011;36732;47.980;11.652;2023-04-24T00:24:38;0.32;;;0.30;;
50757;SDS011;36732;47.980;11.652;2023-04-24T00:27:04;0.80;;;0.25;;
50757;SDS011;36732;47.980;11.652;2023-04-24T00:29:30;0.50;;;0.40;;
50757;SDS011;36732;47.980;11.652;2023-04-24T00:31:56;0.22;;;0.22;;
50757;SDS011;36732;47.980;11.652;2023-04-24T00:34:21;0.68;;;0.30;;
50757;SDS011;36732;47.980;11.652;2023-04-24T00:36:47;1.05;;;0.40;;
50757;SDS011;36732;47.980;11.652;2023-04-24T00:39:17;0.38;;;0.20;;
50757;SDS011;36732;47.980;11.652;2023-04-24T00:41:46;0.28;;;0.25;;
50757;SDS011;36732;47.980;11.652;2023-04-24T00:44:13;0.13;;;0.13;;
50757;SDS011;36732;47.980;11.652;2023-04-24T00:46:39;0.30;;;0.30;;
50757;SDS011;36732;47.980;11.652;2023-04-24T00:49:06;0.30;;;0.20;;
50757;SDS011;36732;47.980;11.652;2023-04-24T00:51:32;0.22;;;0.22;;
50757;SDS011;36732;47.980;11.652;2023-04-24T00:53:59;0.38;;;0.35;;
50757;SDS011;36732;47.980;11.652;2023-04-24T00:56:25;0.20;;;0.20;;
50757;SDS011;36732;47.980;11.652;2023-04-24T00:58:51;0.70;;;0.30;;
50757;SDS011;36732;47.980;11.652;2023-04-24T01:01:21;0.35;;;0.28;;
50757;SDS011;36732;47.980;11.652;2023-04-24T01:03:48;1.45;;;0.60;;
50757;SDS011;36732;47.980;11.652;2023-04-24T01:06:16;0.20;;;0.20;;
50757;SDS011;36732;47.980;11.652;2023-04-24T01:08:43;0.20;;;0.20;;
50757;SDS011;36732;47.980;11.652;2023-04-24T01:11:11;0.25;;;0.20;;
50757;SDS011;36732;47.980;11.652;2023-04-24T01:13:37;0.20;;;0.20;;
50757;SDS011;36732;47.980;11.652;2023-04-24T01:16:03;0.43;;;0.30;;
50757;SDS011;36732;47.980;11.652;2023-04-24T01:18:29;0.30;;;0.30;;
50757;SDS011;36732;47.980;11.652;2023-04-24T01:20:58;0.30;;;0.30;;
50757;SDS011;36732;47.980;11.652;2023-04-24T01:23:27;0.20;;;0.20;;
50757;SDS011;36732;47.980;11.652;2023-04-24T01:25:52;0.43;;;0.40;;
50757;SDS011;36732;47.980;11.652;2023-04-24T01:28:19;0.45;;;0.35;;
50757;SDS011;36732;47.980;11.652;2023-04-24T01:30:45;2.08;;;0.30;;
50757;SDS011;36732;47.980;11.652;2023-04-24T01:33:10;0.32;;;0.28;;
50757;SDS011;36732;47.980;11.652;2023-04-24T01:35:37;1.08;;;0.40;;
50757;SDS011;36732;47.980;11.652;2023-04-24T01:38:03;0.38;;;0.30;;
50757;SDS011;36732;47.980;11.652;2023-04-24T01:40:30;0.52;;;0.40;;
50757;SDS011;36732;47.980;11.652;2023-04-24T01:42:57;0.50;;;0.30;;
50757;SDS011;36732;47.980;11.652;2023-04-24T01:45:23;1.65;;;0.30;;
50757;SDS011;36732;47.980;11.652;2023-04-24T01:47:50;0.20;;;0.20;;
50757;SDS011;36732;47.980;11.652;2023-04-24T01:50:16;0.32;;;0.30;;
50757;SDS011;36732;47.980;11.652;2023-04-24T01:52:42;0.30;;;0.30;;
50757;SDS011;36732;47.980;11.652;2023-04-24T01:55:09;0.20;;;0.20;;
50757;SDS011;36732;47.980;11.652;2023-04-24T01:57:35;0.28;;;0.28;;
50757;SDS011;36732;47.980;11.652;2023-04-24T02:00:02;0.35;;;0.20;;
50757;SDS011;36732;47.980;11.652;2023-04-24T02:02:29;0.15;;;0.15;;
50757;SDS011;36732;47.980;11.652;2023-04-24T02:04:55;0.15;;;0.15;;
50757;SDS011;36732;47.980;11.652;2023-04-24T02:07:22;0.20;;;0.20;;
50757;SDS011;36732;47.980;11.652;2023-04-24T02:09:48;0.20;;;0.20;;
50757;SDS011;36732;47.980;11.652;2023-04-24T02:12:14;0.30;;;0.30;;
50757;SDS011;36732;47.980;11.652;2023-04-24T02:14:42;0.60;;;0.30;;
50757;SDS011;36732;47.980;11.652;2023-04-24T02:17:08;0.52;;;0.20;;
50757;SDS011;36732;47.980;11.652;2023-04-24T02:19:34;0.45;;;0.28;;
50757;SDS011;36732;47.980;11.652;2023-04-24T02:22:00;0.52;;;0.38;;
50757;SDS011;36732;47.980;11.652;2023-04-24T02:24:26;0.40;;;0.20;;
50757;SDS011;36732;47.980;11.652;2023-04-24T02:26:51;0.50;;;0.20;;
50757;SDS011;36732;47.980;11.652;2023-04-24T02:29:17;0.40;;;0.28;;
50757;SDS011;36732;47.980;11.652;2023-04-24T02:31:43;0.20;;;0.20;;
50757;SDS011;36732;47.980;11.652;2023-04-24T02:34:08;1.55;;;0.30;;
50757;SDS011;36732;47.980;11.652;2023-04-24T02:36:34;1.38;;;0.30;;
50757;SDS011;36732;47.980;11.652;2023-04-24T02:39:00;0.40;;;0.20;;
50757;SDS011;36732;47.980;11.652;2023-04-24T02:41:26;1.45;;;0.28;;
50757;SDS011;36732;47.980;11.652;2023-04-24T02:43:56;0.25;;;0.20;;
50757;SDS011;36732;47.980;11.652;2023-04-24T02:46:23;0.20;;;0.20;;
50757;SDS011;36732;47.980;11.652;2023-04-24T02:48:49;0.95;;;0.40;;
50757;SDS011;36732;47.980;11.652;2023-04-24T02:51:15;0.22;;;0.22;;
50757;SDS011;36732;47.980;11.652;2023-04-24T02:53:40;0.35;;;0.30;;
50757;SDS011;36732;47.980;11.652;2023-04-24T02:56:06;0.38;;;0.38;;
50757;SDS011;36732;47.980;11.652;2023-04-24T02:58:32;0.55;;;0.28;;
50757;SDS011;36732;47.980;11.652;2023-04-24T03:00:57;3.55;;;0.40;;
50757;SDS011;36732;47.980;11.652;2023-04-24T03:03:23;0.20;;;0.20;;
50757;SDS011;36732;47.980;11.652;2023-04-24T03:05:49;0.47;;;0.30;;
50757;SDS011;36732;47.980;11.652;2023-04-24T03:08:15;0.20;;;0.20;;
50757;SDS011;36732;47.980;11.652;2023-04-24T03:10:41;0.20;;;0.20;;
50757;SDS011;36732;47.980;11.652;2023-04-24T03:13:06;0.30;;;0.30;;
50757;SDS011;36732;47.980;11.652;2023-04-24T03:15:32;0.22;;;0.20;;
50757;SDS011;36732;47.980;11.652;2023-04-24T03:17:58;0.50;;;0.30;;
50757;SDS011;36732;47.980;11.652;2023-04-24T03:20:25;0.20;;;0.20;;
50757;SDS011;36732;47.980;11.652;2023-04-24T03:22:51;0.80;;;0.40;;
50757;SDS011;36732;47.980;11.652;2023-04-24T03:25:17;0.65;;;0.30;;
50757;SDS011;36732;47.980;11.652;2023-04-24T03:27:43;0.77;;;0.30;;
50757;SDS011;36732;47.980;11.652;2023-04-24T03:30:09;0.95;;;0.30;;
50757;SDS011;36732;47.980;11.652;2023-04-24T03:32:35;0.28;;;0.28;;
50757;SDS011;36732;47.980;11.652;2023-04-24T03:35:01;0.20;;;0.20;;
50757;SDS011;36732;47.980;11.652;2023-04-24T03:37:27;0.93;;;0.30;;
50757;SDS011;36732;47.980;11.652;2023-04-24T03:39:53;0.20;;;0.20;;
50757;SDS011;36732;47.980;11.652;2023-04-24T03:42:18;0.63;;;0.30;;
50757;SDS011;36732;47.980;11.652;2023-04-24T03:44:44;0.35;;;0.22;;
50757;SDS011;36732;47.980;11.652;2023-04-24T03:47:10;0.20;;;0.20;;
50757;SDS011;36732;47.980;11.652;2023-04-24T03:49:36;0.55;;;0.35;;
50757;SDS011;36732;47.980;11.652;2023-04-24T03:52:01;0.32;;;0.10;;
50757;SDS011;36732;47.980;11.652;2023-04-24T03:54:27;0.40;;;0.40;;
50757;SDS011;36732;47.980;11.652;2023-04-24T03:56:53;0.98;;;0.30;;
50757;SDS011;36732;47.980;11.652;2023-04-24T03:59:19;0.40;;;0.30;;
50757;SDS011;36732;47.980;11.652;2023-04-24T04:01:44;0.40;;;0.20;;
50757;SDS011;36732;47.980;11.652;2023-04-24T04:04:10;0.20;;;0.20;;
50757;SDS011;36732;47.980;11.652;2023-04-24T04:06:37;0.30;;;0.30;;
50757;SDS011;36732;47.980;11.652;2023-04-24T04:09:03;0.38;;;0.38;;
50757;SDS011;36732;47.980;11.652;2023-04-24T04:11:29;0.47;;;0.40;;
50757;SDS011;36732;47.980;11.652;2023-04-24T04:13:55;0.13;;;0.13;;
50757;SDS011;36732;47.980;11.652;2023-04-24T04:16:21;0.55;;;0.30;;
50757;SDS011;36732;47.980;11.652;2023-04-24T04:18:47;1.73;;;0.68;;
50757;SDS011;36732;47.980;11.652;2023-04-24T04:21:13;0.40;;;0.40;;
50757;SDS011;36732;47.980;11.652;2023-04-24T04:23:39;1.65;;;0.40;;
50757;SDS011;36732;47.980;11.652;2023-04-24T04:26:05;0.38;;;0.28;;
50757;SDS011;36732;47.980;11.652;2023-04-24T04:28:31;2.15;;;0.38;;
50757;SDS011;36732;47.980;11.652;2023-04-24T04:30:57;1.70;;;0.30;;
50757;SDS011;36732;47.980;11.652;2023-04-24T04:33:23;0.20;;;0.20;;
50757;SDS011;36732;47.980;11.652;2023-04-24T04:35:50;1.30;;;0.73;;
50757;SDS011;36732;47.980;11.652;2023-04-24T04:38:18;1.10;;;0.40;;
50757;SDS011;36732;47.980;11.652;2023-04-24T04:40:45;0.20;;;0.20;;
50757;SDS011;36732;47.980;11.652;2023-04-24T04:43:11;0.32;;;0.28;;
50757;SDS011;36732;47.980;11.652;2023-04-24T04:45:38;0.65;;;0.30;;
50757;SDS011;36732;47.980;11.652;2023-04-24T04:48:06;1.25;;;0.50;;
50757;SDS011;36732;47.980;11.652;2023-04-24T04:50:37;0.50;;;0.28;;
50757;SDS011;36732;47.980;11.652;2023-04-24T04:53:03;0.30;;;0.30;;
50757;SDS011;36732;47.980;11.652;2023-04-24T04:55:30;0.20;;;0.20;;
50757;SDS011;36732;47.980;11.652;2023-04-24T04:57:55;0.40;;;0.30;;
50757;SDS011;36732;47.980;11.652;2023-04-24T05:00:22;0.60;;;0.40;;
50757;SDS011;36732;47.980;11.652;2023-04-24T05:02:50;0.43;;;0.25;;
50757;SDS011;36732;47.980;11.652;2023-04-24T05:05:16;0.50;;;0.30;;
50757;SDS011;36732;47.980;11.652;2023-04-24T05:07:43;0.35;;;0.30;;
50757;SDS011;36732;47.980;11.652;2023-04-24T05:10:09;0.38;;;0.38;;
50757;SDS011;36732;47.980;11.652;2023-04-24T05:12:35;0.57;;;0.30;;
50757;SDS011;36732;47.980;11.652;2023-04-24T05:15:01;0.43;;;0.20;;
50757;SDS011;36732;47.980;11.652;2023-04-24T05:17:27;0.30;;;0.30;;
50757;SDS011;36732;47.980;11.652;2023-04-24T05:19:53;0.30;;;0.30;;
50757;SDS011;36732;47.980;11.652;2023-04-24T05:22:19;0.30;;;0.30;;
50757;SDS011;36732;47.980;11.652;2023-04-24T05:24:46;0.28;;;0.20;;
50757;SDS011;36732;47.980;11.652;2023-04-24T05:27:12;0.30;;;0.30;;
50757;SDS011;36732;47.980;11.652;2023-04-24T05:29:38;0.40;;;0.28;;
50757;SDS011;36732;47.980;11.652;2023-04-24T05:32:05;0.30;;;0.30;;
50757;SDS011;36732;47.980;11.652;2023-04-24T05:34:31;0.80;;;0.43;;
50757;SDS011;36732;47.980;11.652;2023-04-24T05:36:57;0.90;;;0.70;;
50757;SDS011;36732;47.980;11.652;2023-04-24T05:39:23;0.85;;;0.60;;
50757;SDS011;36732;47.980;11.652;2023-04-24T05:41:50;0.50;;;0.50;;
50757;SDS011;36732;47.980;11.652;2023-04-24T05:44:16;0.57;;;0.50;;
50757;SDS011;36732;47.980;11.652;2023-04-24T05:46:41;0.73;;;0.35;;
50757;SDS011;36732;47.980;11.652;2023-04-24T05:49:07;0.40;;;0.40;;
50757;SDS011;36732;47.980;11.652;2023-04-24T05:51:33;0.20;;;0.20;;
50757;SDS011;36732;47.980;11.652;2023-04-24T05:53:58;0.77;;;0.32;;
50757;SDS011;36732;47.980;11.652;2023-04-24T05:56:24;0.85;;;0.30;;
50757;SDS011;36732;47.980;11.652;2023-04-24T05:58:50;0.30;;;0.30;;
50757;SDS011;36732;47.980;11.652;2023-04-24T06:01:16;0.25;;;0.25;;
50757;SDS011;36732;47.980;11.652;2023-04-24T06:03:41;0.20;;;0.20;;
50757;SDS011;36732;47.980;11.652;2023-04-24T06:06:07;0.22;;;0.22;;
50757;SDS011;36732;47.980;11.652;2023-04-24T06:08:34;0.30;;;0.30;;
50757;SDS011;36732;47.980;11.652;2023-04-24T06:11:00;0.30;;;0.30;;
50757;SDS011;36732;47.980;11.652;2023-04-24T06:13:26;0.47;;;0.20;;
50757;SDS011;36732;47.980;11.652;2023-04-24T06:15:52;1.10;;;0.32;;
50757;SDS011;36732;47.980;11.652;2023-04-24T06:18:18;0.77;;;0.20;;
50757;SDS011;36732;47.980;11.652;2023-04-24T06:20:44;0.20;;;0.20;;
50757;SDS011;36732;47.980;11.652;2023-04-24T06:23:11;0.50;;;0.28;;
50757;SDS011;36732;47.980;11.652;2023-04-24T06:25:37;0.22;;;0.20;;
50757;SDS011;36732;47.980;11.652;2023-04-24T06:28:03;0.20;;;0.20;;
50757;SDS011;36732;47.980;11.652;2023-04-24T06:30:29;0.25;;;0.22;;
50757;SDS011;36732;47.980;11.652;2023-04-24T06:32:54;0.20;;;0.20;;
50757;SDS011;36732;47.980;11.652;2023-04-24T06:35:20;0.30;;;0.30;;
50757;SDS011;36732;47.980;11.652;2023-04-24T06:37:46;2.50;;;0.20;;
50757;SDS011;36732;47.980;11.652;2023-04-24T06:40:11;0.82;;;0.20;;
50757;SDS011;36732;47.980;11.652;2023-04-24T06:42:37;2.53;;;0.40;;
50757;SDS011;36732;47.980;11.652;2023-04-24T06:45:03;0.57;;;0.20;;
50757;SDS011;36732;47.980;11.652;2023-04-24T06:47:30;1.08;;;0.55;;
50757;SDS011;36732;47.980;11.652;2023-04-24T06:49:56;0.45;;;0.20;;
50757;SDS011;36732;47.980;11.652;2023-04-24T06:52:22;0.30;;;0.30;;
50757;SDS011;36732;47.980;11.652;2023-04-24T06:54:48;0.57;;;0.20;;
50757;SDS011;36732;47.980;11.652;2023-04-24T06:57:13;0.15;;;0.15;;
50757;SDS011;36732;47.980;11.652;2023-04-24T06:59:41;0.25;;;0.25;;
50757;SDS011;36732;47.980;11.652;2023-04-24T07:02:07;0.40;;;0.20;;
50757;SDS011;36732;47.980;11.652;2023-04-24T07:04:33;1.05;;;0.40;;
50757;SDS011;36732;47.980;11.652;2023-04-24T07:06:58;0.22;;;0.22;;
50757;SDS011;36732;47.980;11.652;2023-04-24T07:09:25;0.22;;;0.22;;
50757;SDS011;36732;47.980;11.652;2023-04-24T07:11:52;0.28;;;0.28;;
50757;SDS011;36732;47.980;11.652;2023-04-24T07:14:18;0.13;;;0.13;;
50757;SDS011;36732;47.980;11.652;2023-04-24T07:16:44;0.52;;;0.35;;
50757;SDS011;36732;47.980;11.652;2023-04-24T07:19:10;0.20;;;0.20;;
50757;SDS011;36732;47.980;11.652;2023-04-24T07:21:37;0.20;;;0.20;;
50757;SDS011;36732;47.980;11.652;2023-04-24T07:24:03;0.20;;;0.20;;
50757;SDS011;36732;47.980;11.652;2023-04-24T07:26:29;0.20;;;0.20;;
50757;SDS011;36732;47.980;11.652;2023-04-24T07:28:56;0.10;;;0.10;;
50757;SDS011;36732;47.980;11.652;2023-04-24T07:31:21;0.15;;;0.15;;
50757;SDS011;36732;47.980;11.652;2023-04-24T07:33:47;0.82;;;0.20;;
50757;SDS011;36732;47.980;11.652;2023-04-24T07:36:13;0.90;;;0.25;;
50757;SDS011;36732;47.980;11.652;2023-04-24T07:38:44;0.65;;;0.20;;
50757;SDS011;36732;47.980;11.652;2023-04-24T07:41:10;0.20;;;0.20;;
50757;SDS011;36732;47.980;11.652;2023-04-24T07:43:38;0.20;;;0.20;;
50757;SDS011;36732;47.980;11.652;2023-04-24T07:46:03;0.30;;;0.30;;
50757;SDS011;36732;47.980;11.652;2023-04-24T07:48:29;0.22;;;0.20;;
50757;SDS011;36732;47.980;11.652;2023-04-24T07:50:55;0.28;;;0.15;;
50757;SDS011;36732;47.980;11.652;2023-04-24T07:53:22;0.43;;;0.40;;
50757;SDS011;36732;47.980;11.652;2023-04-24T07:55:47;0.20;;;0.15;;
50757;SDS011;36732;47.980;11.652;2023-04-24T07:58:13;0.30;;;0.28;;
50757;SDS011;36732;47.980;11.652;2023-04-24T08:00:39;0.20;;;0.20;;
50757;SDS011;36732;47.980;11.652;2023-04-24T08:03:05;0.20;;;0.20;;
50757;SDS011;36732;47.980;11.652;2023-04-24T08:05:30;0.20;;;0.20;;
50757;SDS011;36732;47.980;11.652;2023-04-24T08:07:56;0.22;;;0.17;;
50757;SDS011;36732;47.980;11.652;2023-04-24T08:10:22;0.20;;;0.20;;
50757;SDS011;36732;47.980;11.652;2023-04-24T08:12:48;0.38;;;0.20;;
50757;SDS011;36732;47.980;11.652;2023-04-24T08:15:14;0.75;;;0.20;;
50757;SDS011;36732;47.980;11.652;2023-04-24T08:17:40;0.30;;;0.20;;
50757;SDS011;36732;47.980;11.652;2023-04-24T08:20:08;0.50;;;0.30;;
50757;SDS011;36732;47.980;11.652;2023-04-24T08:22:41;0.20;;;0.20;;
50757;SDS011;36732;47.980;11.652;2023-04-24T08:25:08;0.20;;;0.20;;
50757;SDS011;36732;47.980;11.652;2023-04-24T08:27:35;0.32;;;0.20;;
50757;SDS011;36732;47.980;11.652;2023-04-24T08:30:02;0.20;;;0.20;;
50757;SDS011;36732;47.980;11.652;2023-04-24T08:32:29;0.20;;;0.20;;
50757;SDS011;36732;47.980;11.652;2023-04-24T08:34:55;0.40;;;0.30;;
50757;SDS011;36732;47.980;11.652;2023-04-24T08:37:22;0.45;;;0.20;;
50757;SDS011;36732;47.980;11.652;2023-04-24T08:39:51;0.20;;;0.20;;
50757;SDS011;36732;47.980;11.652;2023-04-24T08:42:18;0.28;;;0.20;;
50757;SDS011;36732;47.980;11.652;2023-04-24T08:44:44;0.35;;;0.20;;
50757;SDS011;36732;47.980;11.652;2023-04-24T08:47:11;0.30;;;0.20;;
50757;SDS011;36732;47.980;11.652;2023-04-24T08:49:37;1.85;;;0.50;;
50757;SDS011;36732;47.980;11.652;2023-04-24T08:52:04;1.10;;;0.40;;
50757;SDS011;36732;47.980;11.652;2023-04-24T08:54:31;0.57;;;0.20;;
50757;SDS011;36732;47.980;11.652;2023-04-24T08:56:59;2.38;;;0.20;;
50757;SDS011;36732;47.980;11.652;2023-04-24T08:59:27;0.45;;;0.20;;
50757;SDS011;36732;47.980;11.652;2023-04-24T09:01:53;0.40;;;0.30;;
50757;SDS011;36732;47.980;11.652;2023-04-24T09:04:21;0.25;;;0.25;;
50757;SDS011;36732;47.980;11.652;2023-04-24T09:06:50;0.40;;;0.30;;
50757;SDS011;36732;47.980;11.652;2023-04-24T09:09:18;0.30;;;0.30;;
50757;SDS011;36732;47.980;11.652;2023-04-24T09:11:44;5.95;;;0.60;;
50757;SDS011;36732;47.980;11.652;2023-04-24T09:14:11;0.45;;;0.43;;
50757;SDS011;36732;47.980;11.652;2023-04-24T09:16:38;0.32;;;0.30;;
50757;SDS011;36732;47.980;11.652;2023-04-24T09:19:04;0.30;;;0.30;;
50757;SDS011;36732;47.980;11.652;2023-04-24T09:21:33;2.80;;;0.40;;
50757;SDS011;36732;47.980;11.652;2023-04-24T09:24:00;0.28;;;0.28;;
50757;SDS011;36732;47.980;11.652;2023-04-24T09:26:31;0.73;;;0.40;;
50757;SDS011;36732;47.980;11.652;2023-04-24T09:28:59;1.45;;;0.60;;
50757;SDS011;36732;47.980;11.652;2023-04-24T09:31:26;0.30;;;0.30;;
50757;SDS011;36732;47.980;11.652;2023-04-24T09:33:58;2.05;;;0.60;;
50757;SDS011;36732;47.980;11.652;2023-04-24T09:36:37;0.50;;;0.50;;
50757;SDS011;36732;47.980;11.652;2023-04-24T09:39:08;0.30;;;0.30;;
50757;SDS011;36732;47.980;11.652;2023-04-24T09:41:43;1.02;;;0.40;;
50757;SDS011;36732;47.980;11.652;2023-04-24T09:44:24;0.35;;;0.35;;
50757;SDS011;36732;47.980;11.652;2023-04-24T09:46:52;0.65;;;0.50;;
50757;SDS011;36732;47.980;11.652;2023-04-24T09:49:22;0.30;;;0.30;;
50757;SDS011;36732;47.980;11.652;2023-04-24T09:51:59;0.35;;;0.35;;
50757;SDS011;36732;47.980;11.652;2023-04-24T09:54:32;0.60;;;0.47;;
50757;SDS011;36732;47.980;11.652;2023-04-24T09:56:58;0.30;;;0.30;;
50757;SDS011;36732;47.980;11.652;2023-04-24T09:59:25;0.63;;;0.50;;
50757;SDS011;36732;47.980;11.652;2023-04-24T10:01:51;0.40;;;0.40;;
50757;SDS011;36732;47.980;11.652;2023-04-24T10:06:45;0.43;;;0.40;;
50757;SDS011;36732;47.980;11.652;2023-04-24T10:09:13;0.52;;;0.40;;
50757;SDS011;36732;47.980;11.652;2023-04-24T10:11:44;0.45;;;0.40;;
50757;SDS011;36732;47.980;11.652;2023-04-24T10:14:12;0.50;;;0.50;;
50757;SDS011;36732;47.980;11.652;2023-04-24T10:16:43;0.50;;;0.50;;
50757;SDS011;36732;47.980;11.652;2023-04-24T10:19:11;0.40;;;0.40;;
50757;SDS011;36732;47.980;11.652;2023-04-24T10:21:38;0.90;;;0.60;;
50757;SDS011;36732;47.980;11.652;2023-04-24T10:24:16;2.22;;;0.60;;
50757;SDS011;36732;47.980;11.652;2023-04-24T10:26:45;1.02;;;0.40;;
50757;SDS011;36732;47.980;11.652;2023-04-24T10:29:13;1.33;;;0.60;;
50757;SDS011;36732;47.980;11.652;2023-04-24T10:31:41;1.70;;;0.60;;
50757;SDS011;36732;47.980;11.652;2023-04-24T10:34:10;1.15;;;0.47;;
50757;SDS011;36732;47.980;11.652;2023-04-24T10:36:38;0.82;;;0.60;;
50757;SDS011;36732;47.980;11.652;2023-04-24T10:39:10;0.70;;;0.65;;
50757;SDS011;36732;47.980;11.652;2023-04-24T10:41:38;0.50;;;0.50;;
50757;SDS011;36732;47.980;11.652;2023-04-24T10:44:04;0.85;;;0.55;;
50757;SDS011;36732;47.980;11.652;2023-04-24T10:46:33;1.55;;;0.50;;
50757;SDS011;36732;47.980;11.652;2023-04-24T10:48:59;1.35;;;0.80;;
50757;SDS011;36732;47.980;11.652;2023-04-24T10:51:52;0.93;;;0.60;;
50757;SDS011;36732;47.980;11.652;2023-04-24T10:54:26;0.60;;;0.60;;
50757;SDS011;36732;47.980;11.652;2023-04-24T10:59:45;0.95;;;0.50;;
50757;SDS011;36732;47.980;11.652;2023-04-24T11:02:16;1.23;;;0.55;;
50757;SDS011;36732;47.980;11.652;2023-04-24T11:04:43;1.30;;;0.47;;
50757;SDS011;36732;47.980;11.652;2023-04-24T11:07:10;0.40;;;0.40;;
50757;SDS011;36732;47.980;11.652;2023-04-24T11:09:36;0.30;;;0.30;;
50757;SDS011;36732;47.980;11.652;2023-04-24T11:17:34;0.30;;;0.30;;
50757;SDS011;36732;47.980;11.652;2023-04-24T11:20:08;0.40;;;0.40;;
50757;SDS011;36732;47.980;11.652;2023-04-24T11:22:37;0.75;;;0.63;;
50757;SDS011;36732;47.980;11.652;2023-04-24T11:25:07;0.70;;;0.50;;
50757;SDS011;36732;47.980;11.652;2023-04-24T11:27:41;0.50;;;0.40;;
50757;SDS011;36732;47.980;11.652;2023-04-24T11:30:08;0.93;;;0.60;;
50757;SDS011;36732;47.980;11.652;2023-04-24T11:32:36;0.40;;;0.40;;
50757;SDS011;36732;47.980;11.652;2023-04-24T11:35:17;0.55;;;0.30;;
50757;SDS011;36732;47.980;11.652;2023-04-24T11:37:50;0.52;;;0.52;;
50757;SDS011;36732;47.980;11.652;2023-04-24T11:40:18;0.52;;;0.50;;
50757;SDS011;36732;47.980;11.652;2023-04-24T11:42:47;0.75;;;0.57;;
50757;SDS011;36732;47.980;11.652;2023-04-24T11:45:25;0.43;;;0.40;;
50757;SDS011;36732;47.980;11.652;2023-04-24T11:47:55;0.50;;;0.40;;
50757;SDS011;36732;47.980;11.652;2023-04-24T11:50:23;0.50;;;0.35;;
50757;SDS011;36732;47.980;11.652;2023-04-24T11:52:52;1.20;;;0.52;;
50757;SDS011;36732;47.980;11.652;2023-04-24T11:57:44;0.35;;;0.35;;
50757;SDS011;36732;47.980;11.652;2023-04-24T12:00:15;0.93;;;0.50;;
50757;SDS011;36732;47.980;11.652;2023-04-24T12:02:43;0.50;;;0.50;;
50757;SDS011;36732;47.980;11.652;2023-04-24T12:05:18;0.57;;;0.50;;
50757;SDS011;36732;47.980;11.652;2023-04-24T12:07:50;1.25;;;0.60;;
50757;SDS011;36732;47.980;11.652;2023-04-24T12:10:20;1.52;;;0.75;;
50757;SDS011;36732;47.980;11.652;2023-04-24T12:12:51;0.82;;;0.65;;
50757;SDS011;36732;47.980;11.652;2023-04-24T12:15:18;1.02;;;0.77;;
50757;SDS011;36732;47.980;11.652;2023-04-24T12:17:45;2.05;;;0.70;;
50757;SDS011;36732;47.980;11.652;2023-04-24T12:20:13;1.08;;;0.60;;
50757;SDS011;36732;47.980;11.652;2023-04-24T12:23:12;0.68;;;0.68;;
50757;SDS011;36732;47.980;11.652;2023-04-24T12:25:32;2.75;;;0.90;;
50757;SDS011;36732;47.980;11.652;2023-04-24T12:30:30;1.70;;;0.60;;
50757;SDS011;36732;47.980;11.652;2023-04-24T12:33:04;1.17;;;0.73;;
50757;SDS011;36732;47.980;11.652;2023-04-24T12:35:31;2.22;;;0.77;;
50757;SDS011;36732;47.980;11.652;2023-04-24T12:38:07;1.27;;;0.70;;
50757;SDS011;36732;47.980;11.652;2023-04-24T12:40:35;0.55;;;0.55;;
50757;SDS011;36732;47.980;11.652;2023-04-24T12:43:01;1.38;;;0.65;;
50757;SDS011;36732;47.980;11.652;2023-04-24T12:45:26;1.17;;;0.77;;
50757;SDS011;36732;47.980;11.652;2023-04-24T12:47:53;1.40;;;0.70;;
50757;SDS011;36732;47.980;11.652;2023-04-24T12:50:18;1.83;;;0.60;;
50757;SDS011;36732;47.980;11.652;2023-04-24T12:52:44;1.42;;;0.65;;
50757;SDS011;36732;47.980;11.652;2023-04-24T12:55:10;1.10;;;1.00;;
50757;SDS011;36732;47.980;11.652;2023-04-24T12:57:37;1.40;;;0.88;;
50757;SDS011;36732;47.980;11.652;2023-04-24T13:00:05;1.35;;;0.68;;
50757;SDS011;36732;47.980;11.652;2023-04-24T13:02:33;0.80;;;0.80;;
50757;SDS011;36732;47.980;11.652;2023-04-24T13:04:59;1.02;;;0.80;;
50757;SDS011;36732;47.980;11.652;2023-04-24T13:07:26;0.60;;;0.60;;
50757;SDS011;36732;47.980;11.652;2023-04-24T13:09:52;0.80;;;0.70;;
50757;SDS011;36732;47.980;11.652;2023-04-24T13:12:19;1.20;;;0.70;;
50757;SDS011;36732;47.980;11.652;2023-04-24T13:14:46;1.85;;;0.80;;
50757;SDS011;36732;47.980;11.652;2023-04-24T13:17:12;0.80;;;0.70;;
50757;SDS011;36732;47.980;11.652;2023-04-24T13:19:40;1.00;;;0.63;;
50757;SDS011;36732;47.980;11.652;2023-04-24T13:22:09;1.48;;;0.70;;
50757;SDS011;36732;47.980;11.652;2023-04-24T13:24:36;1.70;;;0.70;;
50757;SDS011;36732;47.980;11.652;2023-04-24T13:27:02;0.93;;;0.55;;
50757;SDS011;36732;47.980;11.652;2023-04-24T13:29:29;3.67;;;0.73;;
50757;SDS011;36732;47.980;11.652;2023-04-24T13:31:54;0.60;;;0.60;;
50757;SDS011;36732;47.980;11.652;2023-04-24T13:34:21;1.33;;;0.90;;
50757;SDS011;36732;47.980;11.652;2023-04-24T13:36:53;1.40;;;1.00;;
50757;SDS011;36732;47.980;11.652;2023-04-24T13:39:22;2.92;;;0.80;;
50757;SDS011;36732;47.980;11.652;2023-04-24T13:41:49;1.90;;;0.80;;
50757;SDS011;36732;47.980;11.652;2023-04-24T13:44:15;2.10;;;0.70;;
50757;SDS011;36732;47.980;11.652;2023-04-24T13:46:43;3.72;;;0.77;;
50757;SDS011;36732;47.980;11.652;2023-04-24T13:49:11;2.33;;;0.95;;
50757;SDS011;36732;47.980;11.652;2023-04-24T13:51:38;0.57;;;0.57;;
50757;SDS011;36732;47.980;11.652;2023-04-24T13:54:04;1.58;;;0.60;;
50757;SDS011;36732;47.980;11.652;2023-04-24T13:56:30;1.10;;;1.00;;
50757;SDS011;36732;47.980;11.652;2023-04-24T13:58:56;2.05;;;0.93;;
50757;SDS011;36732;47.980;11.652;2023-04-24T14:01:22;1.95;;;0.82;;
50757;SDS011;36732;47.980;11.652;2023-04-24T14:03:51;2.60;;;1.10;;
50757;SDS011;36732;47.980;11.652;2023-04-24T14:06:18;1.17;;;0.60;;
50757;SDS011;36732;47.980;11.652;2023-04-24T14:08:44;1.05;;;0.95;;
50757;SDS011;36732;47.980;11.652;2023-04-24T14:11:10;1.48;;;1.10;;
50757;SDS011;36732;47.980;11.652;2023-04-24T14:13:39;0.98;;;0.93;;
50757;SDS011;36732;47.980;11.652;2023-04-24T14:16:06;0.95;;;0.90;;
50757;SDS011;36732;47.980;11.652;2023-04-24T14:18:32;2.17;;;1.10;;
50757;SDS011;36732;47.980;11.652;2023-04-24T14:20:58;4.22;;;1.20;;
50757;SDS011;36732;47.980;11.652;2023-04-24T14:23:24;1.95;;;1.15;;
50757;SDS011;36732;47.980;11.652;2023-04-24T14:25:49;2.45;;;1.30;;
50757;SDS011;36732;47.980;11.652;2023-04-24T14:28:17;1.55;;;0.95;;
50757;SDS011;36732;47.980;11.652;2023-04-24T14:30:44;1.92;;;1.20;;
50757;SDS011;36732;47.980;11.652;2023-04-24T14:33:10;2.88;;;1.25;;
50757;SDS011;36732;47.980;11.652;2023-04-24T14:35:37;3.05;;;1.30;;
50757;SDS011;36732;47.980;11.652;2023-04-24T14:38:02;0.88;;;0.80;;
50757;SDS011;36732;47.980;11.652;2023-04-24T14:40:28;3.10;;;1.27;;
50757;SDS011;36732;47.980;11.652;2023-04-24T14:42:54;1.23;;;0.93;;
50757;SDS011;36732;47.980;11.652;2023-04-24T14:45:22;0.95;;;0.80;;
50757;SDS011;36732;47.980;11.652;2023-04-24T14:47:47;1.80;;;1.13;;